sensor_id;sensor_type;location;lat;lon;timestamp;pressure;altitude;pressure_sealevel;temperature;humidity
26937;BME280;14495;48.116;11.676;2022-11-11T00:00:30;96959.75;;;7.03;100.00
26937;BME280;14495;48.116;11.676;2022-11-11T00:02:56;96960.16;;;6.87;100.00
26937;BME280;14495;48.116;11.676;2022-11-11T00:05:22;96955.03;;;6.84;100.00
26937;BME280;14495;48.116;11.676;2022-11-11T00:07:48;96960.94;;;6.91;100.00
26937;BME280;14495;48.116;11.676;2022-11-11T00:10:13;96956.81;;;6.82;100.00
26937;BME280;14495;48.116;11.676;2022-11-11T00:12:39;96943.03;;;6.80;100.00
26937;BME280;14495;48.116;11.676;2022-11-11T00:15:05;96956.22;;;6.72;100.00
26937;BME280;14495;48.116;11.676;2022-11-11T00:17:30;96958.72;;;6.75;100.00
26937;BME280;14495;48.116;11.676;2022-11-11T00:20:14;96959.59;;;6.76;100.00
26937;BME280;14495;48.116;11.676;2022-11-11T00:22:58;96957.81;;;6.78;100.00
26937;BME280;14495;48.116;11.676;2022-11-11T00:25:42;96950.09;;;6.75;100.00
26937;BME280;14495;48.116;11.676;2022-11-11T00:28:07;96963.88;;;6.77;100.00
26937;BME280;14495;48.116;11.676;2022-11-11T00:30:33;96960.34;;;6.81;100.00
26937;BME280;14495;48.116;11.676;2022-11-11T00:32:58;96958.91;;;6.68;100.00
26937;BME280;14495;48.116;11.676;2022-11-11T00:35:23;96958.63;;;6.80;100.00
26937;BME280;14495;48.116;11.676;2022-11-11T00:38:09;96960.38;;;6.80;100.00
26937;BME280;14495;48.116;11.676;2022-11-11T00:40:35;96958.44;;;6.86;100.00
26937;BME280;14495;48.116;11.676;2022-11-11T00:43:00;96951.63;;;6.82;100.00
26937;BME280;14495;48.116;11.676;2022-11-11T00:45:25;96949.63;;;6.59;100.00
26937;BME280;14495;48.116;11.676;2022-11-11T00:47:51;96955.19;;;6.78;100.00
26937;BME280;14495;48.116;11.676;2022-11-11T00:50:34;96952.03;;;6.67;100.00
26937;BME280;14495;48.116;11.676;2022-11-11T00:53:23;96950.19;;;6.72;100.00
26937;BME280;14495;48.116;11.676;2022-11-11T00:55:49;96954.94;;;7.51;100.00
26937;BME280;14495;48.116;11.676;2022-11-11T00:58:15;96939.81;;;6.70;100.00
26937;BME280;14495;48.116;11.676;2022-11-11T01:00:41;96938.69;;;6.46;100.00
26937;BME280;14495;48.116;11.676;2022-11-11T01:03:07;96938.13;;;6.35;100.00
26937;BME280;14495;48.116;11.676;2022-11-11T01:05:32;96934.06;;;6.59;100.00
26937;BME280;14495;48.116;11.676;2022-11-11T01:07:57;96930.78;;;6.51;100.00
26937;BME280;14495;48.116;11.676;2022-11-11T01:10:23;96927.59;;;6.39;100.00
26937;BME280;14495;48.116;11.676;2022-11-11T01:13:15;96928.78;;;6.28;100.00
26937;BME280;14495;48.116;11.676;2022-11-11T01:15:43;96927.97;;;6.26;100.00
26937;BME280;14495;48.116;11.676;2022-11-11T01:18:11;96932.31;;;6.24;100.00
26937;BME280;14495;48.116;11.676;2022-11-11T01:20:37;96930.78;;;6.16;100.00
26937;BME280;14495;48.116;11.676;2022-11-11T01:23:04;96940.84;;;6.29;100.00
26937;BME280;14495;48.116;11.676;2022-11-11T01:25:37;96938.47;;;7.20;100.00
26937;BME280;14495;48.116;11.676;2022-11-11T01:28:04;96948.00;;;7.21;100.00
26937;BME280;14495;48.116;11.676;2022-11-11T01:30:31;96943.56;;;7.24;100.00
26937;BME280;14495;48.116;11.676;2022-11-11T01:32:56;96933.00;;;6.99;100.00
26937;BME280;14495;48.116;11.676;2022-11-11T01:35:22;96936.84;;;6.84;100.00
26937;BME280;14495;48.116;11.676;2022-11-11T01:37:47;96935.78;;;6.91;100.00
26937;BME280;14495;48.116;11.676;2022-11-11T01:40:13;96931.28;;;6.31;100.00
26937;BME280;14495;48.116;11.676;2022-11-11T01:42:46;96939.06;;;7.00;100.00
26937;BME280;14495;48.116;11.676;2022-11-11T01:48:50;96947.75;;;6.30;100.00
26937;BME280;14495;48.116;11.676;2022-11-11T01:51:40;96940.91;;;6.94;100.00
26937;BME280;14495;48.116;11.676;2022-11-11T01:54:10;96940.72;;;7.02;100.00
26937;BME280;14495;48.116;11.676;2022-11-11T01:56:37;96930.44;;;6.97;100.00
26937;BME280;14495;48.116;11.676;2022-11-11T01:59:07;96934.66;;;7.02;100.00
26937;BME280;14495;48.116;11.676;2022-11-11T02:01:34;96939.13;;;6.29;100.00
26937;BME280;14495;48.116;11.676;2022-11-11T02:04:01;96942.16;;;6.11;100.00
26937;BME280;14495;48.116;11.676;2022-11-11T02:06:50;96938.03;;;6.02;100.00
26937;BME280;14495;48.116;11.676;2022-11-11T02:09:18;96939.00;;;6.68;100.00
26937;BME280;14495;48.116;11.676;2022-11-11T02:11:45;96928.56;;;7.03;100.00
26937;BME280;14495;48.116;11.676;2022-11-11T02:14:28;96933.00;;;6.99;100.00
26937;BME280;14495;48.116;11.676;2022-11-11T02:17:01;96926.50;;;6.83;100.00
26937;BME280;14495;48.116;11.676;2022-11-11T02:19:52;96930.66;;;6.88;100.00
26937;BME280;14495;48.116;11.676;2022-11-11T02:22:29;96934.25;;;6.84;100.00
26937;BME280;14495;48.116;11.676;2022-11-11T02:24:56;96927.13;;;6.92;100.00
26937;BME280;14495;48.116;11.676;2022-11-11T02:27:25;96931.03;;;6.76;100.00
26937;BME280;14495;48.116;11.676;2022-11-11T02:29:54;96930.00;;;6.82;100.00
26937;BME280;14495;48.116;11.676;2022-11-11T02:32:19;96930.78;;;6.85;100.00
26937;BME280;14495;48.116;11.676;2022-11-11T02:34:45;96946.50;;;6.79;100.00
26937;BME280;14495;48.116;11.676;2022-11-11T02:37:11;96941.25;;;6.82;100.00
26937;BME280;14495;48.116;11.676;2022-11-11T02:39:43;96936.66;;;6.23;100.00
26937;BME280;14495;48.116;11.676;2022-11-11T02:42:12;96940.31;;;6.14;100.00
26937;BME280;14495;48.116;11.676;2022-11-11T02:44:38;96941.34;;;6.45;100.00
26937;BME280;14495;48.116;11.676;2022-11-11T02:47:04;96938.47;;;6.55;100.00
26937;BME280;14495;48.116;11.676;2022-11-11T02:49:29;96940.31;;;6.50;100.00
26937;BME280;14495;48.116;11.676;2022-11-11T02:51:55;96955.59;;;6.63;100.00
26937;BME280;14495;48.116;11.676;2022-11-11T02:54:20;96951.00;;;6.38;100.00
26937;BME280;14495;48.116;11.676;2022-11-11T02:56:45;96956.78;;;6.13;100.00
26937;BME280;14495;48.116;11.676;2022-11-11T02:59:29;96957.78;;;6.44;100.00
26937;BME280;14495;48.116;11.676;2022-11-11T03:01:54;96963.91;;;6.41;100.00
26937;BME280;14495;48.116;11.676;2022-11-11T03:04:20;96962.03;;;6.48;100.00
26937;BME280;14495;48.116;11.676;2022-11-11T03:06:45;96970.69;;;6.48;100.00
26937;BME280;14495;48.116;11.676;2022-11-11T03:09:10;96970.00;;;6.40;100.00
26937;BME280;14495;48.116;11.676;2022-11-11T03:11:36;96982.69;;;6.52;100.00
26937;BME280;14495;48.116;11.676;2022-11-11T03:14:02;96985.16;;;6.21;100.00
26937;BME280;14495;48.116;11.676;2022-11-11T03:16:28;96988.22;;;6.38;100.00
26937;BME280;14495;48.116;11.676;2022-11-11T03:19:12;97004.50;;;6.08;100.00
26937;BME280;14495;48.116;11.676;2022-11-11T03:25:13;97016.13;;;6.29;100.00
26937;BME280;14495;48.116;11.676;2022-11-11T03:27:57;97017.03;;;6.28;100.00
26937;BME280;14495;48.116;11.676;2022-11-11T03:30:22;97009.84;;;6.39;100.00
26937;BME280;14495;48.116;11.676;2022-11-11T03:32:47;97008.53;;;6.19;100.00
26937;BME280;14495;48.116;11.676;2022-11-11T03:35:12;97009.06;;;6.35;100.00
26937;BME280;14495;48.116;11.676;2022-11-11T03:37:38;97012.03;;;6.18;100.00
26937;BME280;14495;48.116;11.676;2022-11-11T03:40:22;97016.81;;;6.37;100.00
26937;BME280;14495;48.116;11.676;2022-11-11T03:42:47;97022.88;;;6.36;100.00
26937;BME280;14495;48.116;11.676;2022-11-11T03:45:12;97009.28;;;6.26;100.00
26937;BME280;14495;48.116;11.676;2022-11-11T03:47:38;97024.63;;;6.35;100.00
26937;BME280;14495;48.116;11.676;2022-11-11T03:50:03;97022.31;;;6.23;100.00
26937;BME280;14495;48.116;11.676;2022-11-11T03:52:29;97011.63;;;5.56;100.00
26937;BME280;14495;48.116;11.676;2022-11-11T03:54:54;97012.13;;;5.72;100.00
26937;BME280;14495;48.116;11.676;2022-11-11T03:57:19;97015.41;;;5.81;100.00
26937;BME280;14495;48.116;11.676;2022-11-11T03:59:57;97019.97;;;5.70;100.00
26937;BME280;14495;48.116;11.676;2022-11-11T04:02:22;97022.25;;;5.84;100.00
26937;BME280;14495;48.116;11.676;2022-11-11T04:05:06;97019.72;;;5.81;100.00
26937;BME280;14495;48.116;11.676;2022-11-11T04:07:50;97022.69;;;5.62;100.00
26937;BME280;14495;48.116;11.676;2022-11-11T04:10:34;97026.97;;;5.65;100.00
26937;BME280;14495;48.116;11.676;2022-11-11T04:13:00;97023.47;;;5.68;100.00
26937;BME280;14495;48.116;11.676;2022-11-11T04:15:45;97018.25;;;5.69;100.00
26937;BME280;14495;48.116;11.676;2022-11-11T04:18:29;97007.38;;;5.52;100.00
26937;BME280;14495;48.116;11.676;2022-11-11T04:21:13;96998.34;;;5.28;100.00
26937;BME280;14495;48.116;11.676;2022-11-11T04:23:57;96993.53;;;5.08;100.00
26937;BME280;14495;48.116;11.676;2022-11-11T04:26:22;96997.31;;;5.35;100.00
26937;BME280;14495;48.116;11.676;2022-11-11T04:28:47;96981.94;;;5.69;100.00
26937;BME280;14495;48.116;11.676;2022-11-11T04:31:31;96997.13;;;5.46;100.00
26937;BME280;14495;48.116;11.676;2022-11-11T04:33:57;96990.09;;;5.93;100.00
26937;BME280;14495;48.116;11.676;2022-11-11T04:36:22;96985.44;;;5.68;100.00
26937;BME280;14495;48.116;11.676;2022-11-11T04:38:47;96984.25;;;5.83;100.00
26937;BME280;14495;48.116;11.676;2022-11-11T04:41:31;96985.56;;;6.03;100.00
26937;BME280;14495;48.116;11.676;2022-11-11T04:43:56;96983.13;;;5.95;100.00
26937;BME280;14495;48.116;11.676;2022-11-11T04:46:40;96973.56;;;5.98;100.00
26937;BME280;14495;48.116;11.676;2022-11-11T04:49:05;96983.47;;;5.79;100.00
26937;BME280;14495;48.116;11.676;2022-11-11T04:51:31;96972.75;;;5.95;100.00
26937;BME280;14495;48.116;11.676;2022-11-11T04:54:16;96987.22;;;6.05;100.00
26937;BME280;14495;48.116;11.676;2022-11-11T04:56:41;96989.81;;;6.07;100.00
26937;BME280;14495;48.116;11.676;2022-11-11T04:59:14;97003.09;;;5.91;100.00
26937;BME280;14495;48.116;11.676;2022-11-11T05:01:40;97006.50;;;5.93;100.00
26937;BME280;14495;48.116;11.676;2022-11-11T05:04:24;96999.06;;;5.78;100.00
26937;BME280;14495;48.116;11.676;2022-11-11T05:06:49;97005.66;;;5.93;100.00
26937;BME280;14495;48.116;11.676;2022-11-11T05:09:33;97007.63;;;5.81;100.00
26937;BME280;14495;48.116;11.676;2022-11-11T05:11:58;96998.88;;;5.86;100.00
26937;BME280;14495;48.116;11.676;2022-11-11T05:14:23;96996.00;;;5.99;100.00
26937;BME280;14495;48.116;11.676;2022-11-11T05:17:08;96999.03;;;6.20;100.00
26937;BME280;14495;48.116;11.676;2022-11-11T05:19:53;96999.50;;;5.98;100.00
26937;BME280;14495;48.116;11.676;2022-11-11T05:22:42;97008.09;;;6.00;100.00
26937;BME280;14495;48.116;11.676;2022-11-11T05:25:09;97007.25;;;6.00;100.00
26937;BME280;14495;48.116;11.676;2022-11-11T05:27:51;97000.78;;;6.18;100.00
26937;BME280;14495;48.116;11.676;2022-11-11T05:30:17;97005.19;;;6.14;100.00
26937;BME280;14495;48.116;11.676;2022-11-11T05:32:43;97000.91;;;6.13;100.00
26937;BME280;14495;48.116;11.676;2022-11-11T05:35:09;97012.34;;;6.05;100.00
26937;BME280;14495;48.116;11.676;2022-11-11T05:37:36;97013.88;;;6.13;100.00
26937;BME280;14495;48.116;11.676;2022-11-11T05:40:02;97015.66;;;6.11;100.00
26937;BME280;14495;48.116;11.676;2022-11-11T05:42:27;97021.16;;;5.96;100.00
26937;BME280;14495;48.116;11.676;2022-11-11T05:44:53;97028.16;;;5.92;100.00
26937;BME280;14495;48.116;11.676;2022-11-11T05:47:18;97035.78;;;6.02;100.00
26937;BME280;14495;48.116;11.676;2022-11-11T05:49:43;97024.47;;;6.04;100.00
26937;BME280;14495;48.116;11.676;2022-11-11T05:52:13;97028.88;;;6.00;100.00
26937;BME280;14495;48.116;11.676;2022-11-11T05:54:40;97036.78;;;5.93;100.00
26937;BME280;14495;48.116;11.676;2022-11-11T05:57:06;97036.00;;;5.89;100.00
26937;BME280;14495;48.116;11.676;2022-11-11T05:59:31;97053.97;;;6.00;100.00
26937;BME280;14495;48.116;11.676;2022-11-11T06:01:57;97052.03;;;6.08;100.00
26937;BME280;14495;48.116;11.676;2022-11-11T06:04:22;97050.41;;;6.04;100.00
26937;BME280;14495;48.116;11.676;2022-11-11T06:06:47;97050.88;;;6.22;100.00
26937;BME280;14495;48.116;11.676;2022-11-11T06:09:13;97056.19;;;6.17;100.00
26937;BME280;14495;48.116;11.676;2022-11-11T06:11:38;97051.97;;;6.13;100.00
26937;BME280;14495;48.116;11.676;2022-11-11T06:14:04;97061.47;;;6.12;100.00
26937;BME280;14495;48.116;11.676;2022-11-11T06:16:29;97065.72;;;6.16;100.00
26937;BME280;14495;48.116;11.676;2022-11-11T06:18:55;97062.19;;;6.19;100.00
26937;BME280;14495;48.116;11.676;2022-11-11T06:21:20;97063.94;;;6.18;100.00
26937;BME280;14495;48.116;11.676;2022-11-11T06:23:45;97074.44;;;6.12;100.00
26937;BME280;14495;48.116;11.676;2022-11-11T06:26:11;97079.13;;;5.96;100.00
26937;BME280;14495;48.116;11.676;2022-11-11T06:28:51;97079.50;;;6.20;100.00
26937;BME280;14495;48.116;11.676;2022-11-11T06:31:19;97076.59;;;6.34;100.00
26937;BME280;14495;48.116;11.676;2022-11-11T06:33:45;97080.09;;;6.31;100.00
26937;BME280;14495;48.116;11.676;2022-11-11T06:36:13;97089.69;;;6.29;100.00
26937;BME280;14495;48.116;11.676;2022-11-11T06:38:39;97096.19;;;6.47;100.00
26937;BME280;14495;48.116;11.676;2022-11-11T06:41:05;97103.34;;;6.36;100.00
26937;BME280;14495;48.116;11.676;2022-11-11T06:43:31;97101.97;;;6.19;100.00
26937;BME280;14495;48.116;11.676;2022-11-11T06:45:56;97103.09;;;6.48;100.00
26937;BME280;14495;48.116;11.676;2022-11-11T06:48:24;97105.41;;;6.61;100.00
26937;BME280;14495;48.116;11.676;2022-11-11T06:50:50;97108.34;;;6.45;100.00
26937;BME280;14495;48.116;11.676;2022-11-11T06:53:17;97108.66;;;6.70;100.00
26937;BME280;14495;48.116;11.676;2022-11-11T06:55:43;97116.47;;;6.69;100.00
26937;BME280;14495;48.116;11.676;2022-11-11T06:58:11;97112.06;;;6.72;100.00
26937;BME280;14495;48.116;11.676;2022-11-11T07:00:38;97119.44;;;6.91;100.00
26937;BME280;14495;48.116;11.676;2022-11-11T07:03:05;97122.91;;;6.90;100.00
26937;BME280;14495;48.116;11.676;2022-11-11T07:05:32;97125.94;;;7.09;100.00
26937;BME280;14495;48.116;11.676;2022-11-11T07:08:06;97124.50;;;6.95;100.00
26937;BME280;14495;48.116;11.676;2022-11-11T07:10:33;97131.25;;;7.04;100.00
26937;BME280;14495;48.116;11.676;2022-11-11T07:12:59;97139.38;;;7.26;100.00
26937;BME280;14495;48.116;11.676;2022-11-11T07:15:25;97143.56;;;7.32;100.00
26937;BME280;14495;48.116;11.676;2022-11-11T07:17:50;97160.13;;;7.28;100.00
26937;BME280;14495;48.116;11.676;2022-11-11T07:20:16;97157.28;;;7.39;100.00
26937;BME280;14495;48.116;11.676;2022-11-11T07:22:41;97161.78;;;7.30;100.00
26937;BME280;14495;48.116;11.676;2022-11-11T07:25:07;97160.78;;;7.36;100.00
26937;BME280;14495;48.116;11.676;2022-11-11T07:27:37;97165.97;;;7.36;100.00
26937;BME280;14495;48.116;11.676;2022-11-11T07:30:03;97163.78;;;7.88;100.00
26937;BME280;14495;48.116;11.676;2022-11-11T07:32:28;97158.56;;;7.88;100.00
26937;BME280;14495;48.116;11.676;2022-11-11T07:34:54;97150.81;;;8.18;100.00
26937;BME280;14495;48.116;11.676;2022-11-11T07:37:19;97152.53;;;8.19;100.00
26937;BME280;14495;48.116;11.676;2022-11-11T07:39:44;97149.63;;;8.29;100.00
26937;BME280;14495;48.116;11.676;2022-11-11T07:42:10;97153.81;;;8.35;100.00
26937;BME280;14495;48.116;11.676;2022-11-11T07:44:35;97153.91;;;8.30;100.00
26937;BME280;14495;48.116;11.676;2022-11-11T07:47:00;97151.28;;;8.01;100.00
26937;BME280;14495;48.116;11.676;2022-11-11T07:49:25;97154.13;;;8.54;100.00
26937;BME280;14495;48.116;11.676;2022-11-11T07:51:51;97153.81;;;8.93;100.00
26937;BME280;14495;48.116;11.676;2022-11-11T07:54:16;97156.78;;;9.11;100.00
26937;BME280;14495;48.116;11.676;2022-11-11T07:56:41;97156.84;;;9.07;100.00
26937;BME280;14495;48.116;11.676;2022-11-11T07:59:06;97164.72;;;9.33;100.00
26937;BME280;14495;48.116;11.676;2022-11-11T08:01:32;97163.94;;;9.31;100.00
26937;BME280;14495;48.116;11.676;2022-11-11T08:03:57;97152.84;;;9.51;100.00
26937;BME280;14495;48.116;11.676;2022-11-11T08:06:22;97155.97;;;9.35;100.00
26937;BME280;14495;48.116;11.676;2022-11-11T08:08:48;97156.75;;;9.89;100.00
26937;BME280;14495;48.116;11.676;2022-11-11T08:11:15;97156.97;;;9.31;100.00
26937;BME280;14495;48.116;11.676;2022-11-11T08:13:41;97159.25;;;9.92;100.00
26937;BME280;14495;48.116;11.676;2022-11-11T08:16:12;97147.41;;;10.32;100.00
26937;BME280;14495;48.116;11.676;2022-11-11T08:18:39;97150.28;;;9.49;100.00
26937;BME280;14495;48.116;11.676;2022-11-11T08:21:05;97153.16;;;9.41;100.00
26937;BME280;14495;48.116;11.676;2022-11-11T08:23:30;97148.47;;;9.51;100.00
26937;BME280;14495;48.116;11.676;2022-11-11T08:26:03;97145.41;;;10.14;100.00
26937;BME280;14495;48.116;11.676;2022-11-11T08:28:31;97143.69;;;10.38;100.00
26937;BME280;14495;48.116;11.676;2022-11-11T08:30:58;97138.38;;;9.92;100.00
26937;BME280;14495;48.116;11.676;2022-11-11T08:33:24;97131.09;;;9.75;100.00
26937;BME280;14495;48.116;11.676;2022-11-11T08:35:50;97118.28;;;9.17;100.00
26937;BME280;14495;48.116;11.676;2022-11-11T08:38:17;97121.00;;;9.41;100.00
26937;BME280;14495;48.116;11.676;2022-11-11T08:40:43;97132.16;;;10.43;100.00
26937;BME280;14495;48.116;11.676;2022-11-11T08:43:08;97130.56;;;10.63;100.00
26937;BME280;14495;48.116;11.676;2022-11-11T08:45:34;97129.91;;;11.24;100.00
26937;BME280;14495;48.116;11.676;2022-11-11T08:47:59;97127.25;;;11.87;100.00
26937;BME280;14495;48.116;11.676;2022-11-11T08:50:24;97122.63;;;12.52;100.00
26937;BME280;14495;48.116;11.676;2022-11-11T08:52:51;97123.31;;;12.75;94.93
26937;BME280;14495;48.116;11.676;2022-11-11T08:55:17;97117.72;;;12.45;100.00
26937;BME280;14495;48.116;11.676;2022-11-11T08:57:42;97119.41;;;11.67;100.00
26937;BME280;14495;48.116;11.676;2022-11-11T09:00:09;97120.47;;;11.20;100.00
26937;BME280;14495;48.116;11.676;2022-11-11T09:02:35;97108.66;;;11.73;100.00
26937;BME280;14495;48.116;11.676;2022-11-11T09:05:00;97113.50;;;11.61;100.00
26937;BME280;14495;48.116;11.676;2022-11-11T09:07:26;97105.88;;;11.57;100.00
26937;BME280;14495;48.116;11.676;2022-11-11T09:09:52;97108.88;;;12.28;100.00
26937;BME280;14495;48.116;11.676;2022-11-11T09:12:17;97110.94;;;12.60;100.00
26937;BME280;14495;48.116;11.676;2022-11-11T09:14:43;97120.72;;;13.83;96.91
26937;BME280;14495;48.116;11.676;2022-11-11T09:17:08;97110.78;;;14.05;88.76
26937;BME280;14495;48.116;11.676;2022-11-11T09:19:33;97114.25;;;14.55;83.76
26937;BME280;14495;48.116;11.676;2022-11-11T09:21:58;97120.19;;;13.22;95.84
26937;BME280;14495;48.116;11.676;2022-11-11T09:24:24;97106.06;;;11.93;100.00
26937;BME280;14495;48.116;11.676;2022-11-11T09:26:49;97116.03;;;12.82;100.00
26937;BME280;14495;48.116;11.676;2022-11-11T09:29:16;97115.97;;;13.20;97.52
26937;BME280;14495;48.116;11.676;2022-11-11T09:31:41;97111.03;;;13.83;88.27
26937;BME280;14495;48.116;11.676;2022-11-11T09:34:07;97119.47;;;13.72;85.18
26937;BME280;14495;48.116;11.676;2022-11-11T09:36:32;97118.97;;;14.66;75.03
26937;BME280;14495;48.116;11.676;2022-11-11T09:38:58;97116.66;;;14.92;73.26
26937;BME280;14495;48.116;11.676;2022-11-11T09:42:12;97124.06;;;14.36;76.79
26937;BME280;14495;48.116;11.676;2022-11-11T09:47:34;97108.34;;;14.83;73.46
26937;BME280;14495;48.116;11.676;2022-11-11T09:50:07;97102.47;;;16.15;68.97
26937;BME280;14495;48.116;11.676;2022-11-11T09:52:40;97110.47;;;15.55;68.27
26937;BME280;14495;48.116;11.676;2022-11-11T09:57:37;97113.47;;;15.63;66.12
26937;BME280;14495;48.116;11.676;2022-11-11T10:00:15;97114.78;;;16.87;65.13
26937;BME280;14495;48.116;11.676;2022-11-11T10:02:48;97116.59;;;16.86;63.79
26937;BME280;14495;48.116;11.676;2022-11-11T10:05:19;97124.69;;;16.54;65.06
26937;BME280;14495;48.116;11.676;2022-11-11T10:08:06;97127.38;;;16.81;64.46
26937;BME280;14495;48.116;11.676;2022-11-11T10:10:45;97130.34;;;16.34;63.44
26937;BME280;14495;48.116;11.676;2022-11-11T10:13:31;97125.09;;;16.19;64.07
26937;BME280;14495;48.116;11.676;2022-11-11T10:16:26;97122.69;;;16.87;62.49
26937;BME280;14495;48.116;11.676;2022-11-11T10:21:23;97115.69;;;17.80;58.49
26937;BME280;14495;48.116;11.676;2022-11-11T10:23:54;97110.59;;;19.17;54.61
26937;BME280;14495;48.116;11.676;2022-11-11T10:26:36;97099.69;;;19.57;53.64
26937;BME280;14495;48.116;11.676;2022-11-11T10:29:03;97097.78;;;20.96;56.64
26937;BME280;14495;48.116;11.676;2022-11-11T10:31:30;97092.88;;;20.23;50.06
26937;BME280;14495;48.116;11.676;2022-11-11T10:34:02;97091.75;;;19.92;51.05
26937;BME280;14495;48.116;11.676;2022-11-11T10:36:30;97098.78;;;19.45;50.88
26937;BME280;14495;48.116;11.676;2022-11-11T10:41:39;97101.25;;;19.59;49.49
26937;BME280;14495;48.116;11.676;2022-11-11T10:44:24;97103.09;;;20.17;49.38
26937;BME280;14495;48.116;11.676;2022-11-11T10:47:09;97109.06;;;20.77;47.33
26937;BME280;14495;48.116;11.676;2022-11-11T10:49:41;97099.66;;;21.16;45.95
26937;BME280;14495;48.116;11.676;2022-11-11T10:52:13;97096.97;;;20.39;47.49
26937;BME280;14495;48.116;11.676;2022-11-11T10:54:56;97096.47;;;21.45;45.20
26937;BME280;14495;48.116;11.676;2022-11-11T11:00:27;97103.59;;;20.78;46.22
26937;BME280;14495;48.116;11.676;2022-11-11T11:03:22;97107.16;;;21.11;45.63
26937;BME280;14495;48.116;11.676;2022-11-11T11:05:51;97116.28;;;20.41;46.14
26937;BME280;14495;48.116;11.676;2022-11-11T11:08:21;97109.63;;;20.58;47.22
26937;BME280;14495;48.116;11.676;2022-11-11T11:10:51;97117.88;;;20.66;46.74
26937;BME280;14495;48.116;11.676;2022-11-11T11:13:26;97117.00;;;21.32;47.28
26937;BME280;14495;48.116;11.676;2022-11-11T11:16:03;97108.88;;;21.12;45.71
26937;BME280;14495;48.116;11.676;2022-11-11T11:18:30;97107.19;;;21.76;44.85
26937;BME280;14495;48.116;11.676;2022-11-11T11:21:00;97108.22;;;22.06;43.83
26937;BME280;14495;48.116;11.676;2022-11-11T11:23:35;97103.34;;;22.32;44.16
26937;BME280;14495;48.116;11.676;2022-11-11T11:26:01;97104.13;;;22.44;44.17
26937;BME280;14495;48.116;11.676;2022-11-11T11:28:27;97098.84;;;22.63;43.06
26937;BME280;14495;48.116;11.676;2022-11-11T11:31:04;97093.63;;;22.92;42.31
26937;BME280;14495;48.116;11.676;2022-11-11T11:33:54;97086.97;;;23.27;41.99
26937;BME280;14495;48.116;11.676;2022-11-11T11:36:20;97092.88;;;23.31;43.12
26937;BME280;14495;48.116;11.676;2022-11-11T11:38:47;97092.25;;;22.06;45.36
26937;BME280;14495;48.116;11.676;2022-11-11T11:41:15;97089.34;;;20.91;47.54
26937;BME280;14495;48.116;11.676;2022-11-11T11:43:41;97095.50;;;20.91;47.78
26937;BME280;14495;48.116;11.676;2022-11-11T11:46:18;97084.06;;;20.57;48.26
26937;BME280;14495;48.116;11.676;2022-11-11T11:54:37;97079.81;;;20.20;49.08
26937;BME280;14495;48.116;11.676;2022-11-11T11:57:26;97075.63;;;19.36;50.74
26937;BME280;14495;48.116;11.676;2022-11-11T12:00:27;97079.78;;;18.29;53.33
26937;BME280;14495;48.116;11.676;2022-11-11T12:06:14;97059.97;;;18.47;53.93
26937;BME280;14495;48.116;11.676;2022-11-11T12:11:39;97080.53;;;18.18;55.42
26937;BME280;14495;48.116;11.676;2022-11-11T12:19:55;97093.66;;;17.94;55.97
26937;BME280;14495;48.116;11.676;2022-11-11T12:22:54;97090.09;;;17.55;58.45
26937;BME280;14495;48.116;11.676;2022-11-11T12:32:13;97067.44;;;16.84;63.06
26937;BME280;14495;48.116;11.676;2022-11-11T12:37:24;97067.13;;;17.43;61.37
26937;BME280;14495;48.116;11.676;2022-11-11T12:40:06;97060.81;;;17.84;60.74
26937;BME280;14495;48.116;11.676;2022-11-11T12:42:55;97069.97;;;16.99;62.38
26937;BME280;14495;48.116;11.676;2022-11-11T12:45:37;97060.03;;;17.43;63.56
26937;BME280;14495;48.116;11.676;2022-11-11T12:56:18;97060.69;;;17.07;62.66
26937;BME280;14495;48.116;11.676;2022-11-11T12:58:54;97060.81;;;17.18;63.29
26937;BME280;14495;48.116;11.676;2022-11-11T13:01:38;97060.16;;;17.80;61.16
26937;BME280;14495;48.116;11.676;2022-11-11T13:07:10;97057.03;;;16.53;64.86
26937;BME280;14495;48.116;11.676;2022-11-11T13:09:54;97057.91;;;16.81;66.64
26937;BME280;14495;48.116;11.676;2022-11-11T13:12:33;97057.34;;;16.76;66.02
26937;BME280;14495;48.116;11.676;2022-11-11T13:15:11;97063.81;;;16.57;65.93
26937;BME280;14495;48.116;11.676;2022-11-11T13:17:38;97065.28;;;16.34;66.30
26937;BME280;14495;48.116;11.676;2022-11-11T13:22:48;97061.59;;;15.79;69.57
26937;BME280;14495;48.116;11.676;2022-11-11T13:25:20;97062.16;;;15.99;68.93
26937;BME280;14495;48.116;11.676;2022-11-11T13:30:25;97066.00;;;15.49;74.28
26937;BME280;14495;48.116;11.676;2022-11-11T13:33:20;97055.88;;;15.12;77.73
26937;BME280;14495;48.116;11.676;2022-11-11T13:38:25;97065.72;;;14.45;93.61
26937;BME280;14495;48.116;11.676;2022-11-11T13:40:54;97065.03;;;14.41;100.00
26937;BME280;14495;48.116;11.676;2022-11-11T13:43:27;97064.19;;;14.41;100.00
26937;BME280;14495;48.116;11.676;2022-11-11T13:45:57;97065.41;;;14.51;100.00
26937;BME280;14495;48.116;11.676;2022-11-11T13:48:32;97064.28;;;14.55;98.38
26937;BME280;14495;48.116;11.676;2022-11-11T13:51:18;97071.25;;;14.40;100.00
26937;BME280;14495;48.116;11.676;2022-11-11T13:53:46;97069.09;;;14.47;100.00
26937;BME280;14495;48.116;11.676;2022-11-11T13:56:22;97070.78;;;14.32;99.98
26937;BME280;14495;48.116;11.676;2022-11-11T13:58:49;97077.41;;;14.23;99.74
26937;BME280;14495;48.116;11.676;2022-11-11T14:01:15;97078.41;;;14.21;100.00
26937;BME280;14495;48.116;11.676;2022-11-11T14:13:52;97100.56;;;14.66;100.00
26937;BME280;14495;48.116;11.676;2022-11-11T14:21:51;97088.31;;;14.97;100.00
26937;BME280;14495;48.116;11.676;2022-11-11T14:27:03;97085.06;;;14.44;100.00
26937;BME280;14495;48.116;11.676;2022-11-11T14:29:48;97087.34;;;14.50;100.00
26937;BME280;14495;48.116;11.676;2022-11-11T14:35:46;97084.00;;;14.30;100.00